Time;durP1;ratioP1;P1;durP2;ratioP2;P2;SDS_P1;SDS_P2;PMS_P1;PMS_P2;Temp;Humidity;BMP_temperature;BMP_pressure;BME280_temperature;BME280_humidity;BME280_pressure;Samples;Min_cycle;Max_cycle;Signal;HPM_P1;HPM_P2
2021/10/02 00:33:34;;;;;;;13.00;8.75;;;13.30;65.50;;;;;;4969319;28;20066;-85
2021/10/02 00:45:32;;;;;;;10.98;8.05;;;13.20;65.60;;;;;;4997832;28;20040;-85
2021/10/02 00:47:58;;;;;;;12.50;8.90;;;13.30;65.80;;;;;;4982648;28;20428;-85
2021/10/02 00:50:24;;;;;;;12.35;8.02;;;13.20;65.80;;;;;;5013584;28;20149;-85
2021/10/02 00:52:51;;;;;;;11.52;8.35;;;13.20;65.90;;;;;;5020125;28;20038;-85
2021/10/02 00:55:17;;;;;;;12.57;8.98;;;13.20;65.70;;;;;;5007714;28;20085;-86
2021/10/02 00:57:43;;;;;;;12.95;8.68;;;13.20;65.60;;;;;;5003360;28;20034;-86
2021/10/02 01:00:10;;;;;;;13.98;8.65;;;13.20;65.50;;;;;;4983296;28;20037;-84
2021/10/02 01:02:36;;;;;;;15.60;8.93;;;13.20;65.70;;;;;;5001638;28;20121;-85
2021/10/02 01:05:28;;;;;;;15.60;9.50;;;13.20;65.80;;;;;;4999714;28;20121;-85
2021/10/02 01:08:17;;;;;;;13.25;9.32;;;13.20;65.60;;;;;;4992449;28;20042;-83
2021/10/02 01:10:49;;;;;;;15.20;8.80;;;13.20;65.60;;;;;;5001278;28;20464;-85
2021/10/02 01:13:39;;;;;;;15.23;9.88;;;13.20;65.60;;;;;;4985746;28;20030;-85
2021/10/02 01:16:26;;;;;;;13.65;9.00;;;13.20;65.70;;;;;;5001230;28;20065;-86
2021/10/02 01:19:02;;;;;;;13.27;8.93;;;13.20;65.70;;;;;;5004086;28;20525;-85
2021/10/02 01:21:40;;;;;;;11.90;9.30;;;13.20;65.90;;;;;;5019316;28;20420;-86
2021/10/02 01:24:14;;;;;;;13.73;8.85;;;13.20;66.10;;;;;;5001429;28;20065;-86
2021/10/02 01:27:07;;;;;;;14.18;9.50;;;13.20;66.20;;;;;;5003666;28;20519;-86
2021/10/02 01:29:36;;;;;;;15.52;9.32;;;13.20;66.20;;;;;;5004345;28;20054;-85
2021/10/02 01:32:22;;;;;;;14.93;9.40;;;13.20;66.20;;;;;;5002290;28;20496;-84
2021/10/02 01:48:31;;;;;;;15.32;9.95;;;13.20;65.60;;;;;;5029434;28;20117;-84
2021/10/02 01:50:58;;;;;;;14.60;9.88;;;13.20;65.50;;;;;;5012037;28;20706;-85
2021/10/02 01:53:33;;;;;;;13.93;9.75;;;13.20;65.10;;;;;;5012521;28;20030;-85
2021/10/02 01:56:03;;;;;;;15.67;10.20;;;13.20;65.30;;;;;;5002432;28;20037;-85
2021/10/02 01:58:30;;;;;;;14.00;9.82;;;13.20;65.30;;;;;;4990783;28;20281;-86
2021/10/02 02:00:56;;;;;;;15.00;10.52;;;13.20;65.30;;;;;;5004018;28;20115;-85
2021/10/02 02:03:26;;;;;;;13.90;10.00;;;13.20;65.40;;;;;;4999271;28;20034;-87
2021/10/02 02:05:54;;;;;;;13.70;9.60;;;13.20;65.30;;;;;;5004441;28;20497;-87
2021/10/02 02:08:24;;;;;;;13.73;9.85;;;13.10;65.00;;;;;;4984815;28;20378;-87
2021/10/02 02:10:52;;;;;;;15.32;9.18;;;13.20;65.10;;;;;;4990928;28;20057;-86
2021/10/02 02:13:19;;;;;;;15.48;10.30;;;13.10;65.00;;;;;;5004165;28;20018;-87
2021/10/02 02:15:46;;;;;;;14.90;9.85;;;13.10;65.10;;;;;;5001841;28;20121;-86
2021/10/02 02:18:16;;;;;;;14.23;9.50;;;13.10;64.90;;;;;;5002030;28;20092;-86
2021/10/02 02:20:43;;;;;;;15.25;10.05;;;13.20;64.80;;;;;;4984940;28;20045;-86
2021/10/02 02:23:11;;;;;;;17.52;10.88;;;13.10;64.70;;;;;;4978909;28;20034;-85
2021/10/02 02:25:37;;;;;;;17.55;10.90;;;13.10;64.70;;;;;;5002848;28;20033;-85
2021/10/02 02:28:06;;;;;;;16.40;10.15;;;13.10;64.60;;;;;;5000696;28;20034;-85
2021/10/02 02:30:33;;;;;;;16.13;10.98;;;13.10;64.70;;;;;;4986030;28;20390;-87
2021/10/02 02:33:00;;;;;;;20.83;13.18;;;13.10;64.60;;;;;;5000444;28;20026;-87
2021/10/02 02:35:26;;;;;;;21.58;13.80;;;13.10;64.60;;;;;;5000151;28;20034;-86
2021/10/02 02:37:53;;;;;;;18.52;14.43;;;13.10;64.60;;;;;;5003695;28;20031;-86
2021/10/02 02:40:20;;;;;;;19.40;13.15;;;13.10;64.80;;;;;;5000935;28;20049;-86
2021/10/02 02:42:46;;;;;;;21.35;13.48;;;13.10;65.00;;;;;;5010371;28;20018;-84
2021/10/02 02:45:14;;;;;;;21.80;14.43;;;13.10;65.00;;;;;;5028737;28;20078;-85
2021/10/02 02:47:59;;;;;;;23.42;15.63;;;13.10;65.00;;;;;;5045566;28;20037;-84
2021/10/02 02:50:38;;;;;;;20.75;14.27;;;13.10;65.10;;;;;;4987279;28;20064;-87
2021/10/02 02:53:26;;;;;;;23.80;14.77;;;13.10;65.20;;;;;;5000941;28;20276;-87
2021/10/02 02:56:03;;;;;;;21.42;14.45;;;13.10;65.10;;;;;;5002085;28;20037;-85
2021/10/02 02:58:30;;;;;;;26.52;15.95;;;13.10;65.10;;;;;;5000131;28;20409;-88
2021/10/02 03:01:00;;;;;;;19.98;14.43;;;13.10;65.10;;;;;;5000328;28;20560;-85
2021/10/02 03:03:30;;;;;;;23.65;16.90;;;13.10;65.10;;;;;;5002145;28;20508;-85
2021/10/02 03:06:05;;;;;;;26.38;16.65;;;13.10;65.40;;;;;;4975644;28;20120;-85
2021/10/02 03:08:37;;;;;;;24.23;15.35;;;13.10;65.30;;;;;;4984811;28;20034;-87
2021/10/02 03:11:04;;;;;;;22.17;15.55;;;13.10;65.40;;;;;;5001875;28;20022;-86
2021/10/02 03:13:34;;;;;;;24.50;15.13;;;13.10;65.50;;;;;;4999605;28;20034;-85
2021/10/02 03:16:02;;;;;;;26.42;16.25;;;13.10;65.70;;;;;;5001689;28;20510;-87
2021/10/02 03:18:32;;;;;;;24.27;15.18;;;13.10;65.70;;;;;;5008778;28;20129;-87
2021/10/02 03:20:59;;;;;;;20.85;14.65;;;13.10;65.50;;;;;;5000394;28;20042;-87
2021/10/02 03:23:29;;;;;;;22.90;15.05;;;13.10;65.50;;;;;;5002838;28;20030;-87
2021/10/02 03:25:55;;;;;;;26.10;16.40;;;13.10;65.50;;;;;;4998773;28;20418;-87
2021/10/02 03:28:22;;;;;;;26.77;15.60;;;13.00;65.20;;;;;;4984004;28;20525;-86
2021/10/02 03:30:48;;;;;;;23.52;15.20;;;13.10;65.20;;;;;;4999414;28;20091;-87
2021/10/02 03:33:15;;;;;;;22.52;13.75;;;13.10;65.20;;;;;;4999000;28;20042;-87
2021/10/02 03:35:41;;;;;;;23.05;14.23;;;13.00;65.10;;;;;;5000156;28;20030;-87
2021/10/02 03:38:07;;;;;;;22.95;13.15;;;13.00;65.70;;;;;;5004643;28;20076;-85
2021/10/02 03:40:33;;;;;;;21.83;14.02;;;13.00;65.00;;;;;;5028298;28;20049;-85
2021/10/02 03:42:59;;;;;;;25.75;14.80;;;13.00;64.90;;;;;;5028816;28;20068;-85
2021/10/02 03:45:28;;;;;;;21.88;14.05;;;13.00;65.00;;;;;;5019212;28;20074;-87
2021/10/02 03:47:55;;;;;;;18.25;13.65;;;13.00;65.00;;;;;;5009755;28;21266;-89
2021/10/02 03:50:24;;;;;;;22.92;13.30;;;13.00;65.00;;;;;;5007541;28;20128;-89
2021/10/02 03:52:50;;;;;;;24.50;13.38;;;13.00;64.90;;;;;;5004722;28;20033;-87
2021/10/02 03:55:16;;;;;;;25.40;13.23;;;13.00;64.90;;;;;;5005490;28;20030;-88
2021/10/02 03:57:42;;;;;;;18.35;12.63;;;13.00;64.90;;;;;;5006303;28;20041;-88
2021/10/02 04:00:10;;;;;;;18.50;12.77;;;13.00;64.90;;;;;;5001746;28;20408;-89
2021/10/02 04:02:36;;;;;;;17.85;12.40;;;13.00;64.90;;;;;;4984549;28;20481;-88
2021/10/02 04:05:03;;;;;;;20.58;12.98;;;13.00;64.80;;;;;;5002468;28;20050;-87
2021/10/02 04:07:29;;;;;;;25.27;12.90;;;13.00;64.80;;;;;;5003185;28;20042;-88
2021/10/02 04:09:55;;;;;;;20.73;13.18;;;13.00;64.80;;;;;;4987611;28;20040;-88
2021/10/02 04:12:21;;;;;;;21.30;12.43;;;13.00;64.70;;;;;;5003981;28;20026;-86
2021/10/02 04:14:48;;;;;;;19.85;12.48;;;13.00;64.80;;;;;;5002522;28;20432;-88
2021/10/02 04:17:15;;;;;;;22.67;12.40;;;13.00;64.80;;;;;;4983008;28;20412;-87
2021/10/02 04:19:42;;;;;;;18.63;12.70;;;13.00;64.90;;;;;;5000778;28;20040;-89
2021/10/02 04:22:10;;;;;;;20.45;11.70;;;13.00;64.90;;;;;;4977470;28;20061;-87
2021/10/02 04:24:36;;;;;;;20.63;13.18;;;13.00;65.00;;;;;;4988199;28;20420;-88
2021/10/02 04:27:03;;;;;;;18.45;11.57;;;13.10;65.00;;;;;;4984149;28;20040;-86
2021/10/02 04:29:29;;;;;;;21.77;13.32;;;13.10;64.90;;;;;;4998128;28;20041;-88
2021/10/02 04:31:55;;;;;;;21.75;13.60;;;13.10;64.90;;;;;;5000711;28;20057;-88
2021/10/02 04:34:22;;;;;;;19.92;13.05;;;13.10;64.80;;;;;;5003629;28;20041;-86
2021/10/02 04:36:48;;;;;;;19.55;13.32;;;13.10;64.80;;;;;;5011207;28;20086;-85
2021/10/02 04:39:14;;;;;;;20.90;14.00;;;13.10;64.80;;;;;;5026077;28;20070;-87
2021/10/02 04:41:40;;;;;;;19.10;13.93;;;13.10;64.80;;;;;;5017188;28;20169;-87
2021/10/02 04:44:06;;;;;;;22.75;13.75;;;13.10;64.80;;;;;;5002421;28;20113;-86
2021/10/02 04:46:32;;;;;;;19.20;14.07;;;13.10;64.70;;;;;;5000166;28;20046;-87
2021/10/02 04:48:58;;;;;;;21.85;13.52;;;13.10;64.80;;;;;;5000191;28;20033;-87
2021/10/02 04:51:24;;;;;;;24.35;13.95;;;13.10;64.70;;;;;;5001270;28;20057;-86
2021/10/02 04:53:50;;;;;;;29.00;15.18;;;13.10;64.70;;;;;;5004685;28;20117;-88
2021/10/02 04:56:19;;;;;;;25.10;14.27;;;13.10;64.60;;;;;;5002636;28;20034;-87
2021/10/02 04:58:45;;;;;;;21.77;13.88;;;13.20;64.70;;;;;;5003547;28;20114;-87
2021/10/02 05:01:11;;;;;;;21.85;13.55;;;13.20;64.70;;;;;;5004672;28;20034;-87
2021/10/02 05:03:38;;;;;;;21.48;14.15;;;13.20;64.80;;;;;;5001450;28;20655;-88
2021/10/02 05:06:06;;;;;;;26.70;15.63;;;13.20;64.80;;;;;;5003457;28;20030;-87
2021/10/02 05:08:33;;;;;;;21.48;13.73;;;13.20;64.80;;;;;;5010650;28;20034;-88
2021/10/02 05:11:00;;;;;;;21.77;14.13;;;13.20;64.90;;;;;;4988696;28;20030;-88
2021/10/02 05:13:26;;;;;;;22.52;14.60;;;13.20;64.90;;;;;;5005129;28;20041;-86
2021/10/02 05:15:52;;;;;;;20.25;12.95;;;13.30;65.10;;;;;;4985796;28;20030;-87
2021/10/02 05:18:18;;;;;;;24.33;14.65;;;13.30;65.10;;;;;;5002702;28;20053;-86
2021/10/02 05:20:44;;;;;;;24.17;14.55;;;13.30;65.00;;;;;;5002378;28;20061;-87
2021/10/02 05:23:10;;;;;;;26.70;14.40;;;13.30;65.00;;;;;;5002049;28;20428;-87
2021/10/02 05:25:37;;;;;;;22.60;14.27;;;13.30;65.00;;;;;;4985172;28;20026;-88
2021/10/02 05:28:03;;;;;;;26.85;14.63;;;13.30;65.00;;;;;;5003176;28;20041;-86
2021/10/02 05:30:29;;;;;;;25.10;14.80;;;13.40;65.00;;;;;;4978911;28;20060;-85
2021/10/02 05:32:55;;;;;;;22.08;14.18;;;13.40;65.00;;;;;;5027509;28;20037;-86
2021/10/02 05:35:21;;;;;;;25.33;14.75;;;13.40;64.80;;;;;;5030174;28;20033;-86
2021/10/02 05:37:47;;;;;;;20.70;13.75;;;13.50;64.90;;;;;;5020499;28;20046;-87
2021/10/02 05:40:13;;;;;;;21.30;13.63;;;13.50;64.80;;;;;;4989616;28;20033;-87
2021/10/02 05:42:39;;;;;;;23.60;13.52;;;13.60;64.60;;;;;;4991562;28;20512;-87
2021/10/02 05:45:06;;;;;;;26.95;13.98;;;13.70;64.50;;;;;;5001854;28;20037;-88
2021/10/02 05:47:33;;;;;;;20.95;13.77;;;13.80;64.50;;;;;;5002038;28;20030;-88
2021/10/02 05:49:59;;;;;;;19.88;13.70;;;13.90;64.40;;;;;;5004467;28;20033;-88
2021/10/02 05:52:26;;;;;;;25.67;14.48;;;14.00;64.40;;;;;;4983972;28;20509;-86
2021/10/02 05:54:53;;;;;;;24.20;12.95;;;14.00;64.10;;;;;;4986439;28;20030;-86
2021/10/02 05:57:19;;;;;;;29.52;14.82;;;14.10;64.10;;;;;;5002726;28;20030;-86
2021/10/02 05:59:46;;;;;;;21.42;13.15;;;14.10;63.80;;;;;;5003358;28;20488;-86
2021/10/02 06:02:12;;;;;;;22.80;13.82;;;14.20;63.80;;;;;;5001656;28;20088;-86
2021/10/02 06:04:39;;;;;;;25.65;14.25;;;14.20;63.60;;;;;;5004364;28;20049;-87
2021/10/02 06:07:05;;;;;;;24.25;13.70;;;14.20;63.60;;;;;;4999583;28;20031;-87
2021/10/02 06:09:31;;;;;;;25.70;13.85;;;14.30;63.60;;;;;;5003871;28;20525;-86
2021/10/02 06:11:57;;;;;;;25.33;14.23;;;14.30;63.60;;;;;;5002820;28;20038;-88
2021/10/02 06:14:23;;;;;;;20.77;13.70;;;14.30;63.50;;;;;;5000515;28;20112;-84
2021/10/02 06:16:49;;;;;;;26.52;13.57;;;14.30;63.40;;;;;;5004093;28;20501;-85
2021/10/02 06:19:17;;;;;;;27.67;14.52;;;14.40;63.40;;;;;;4984385;28;20041;-86
2021/10/02 06:21:43;;;;;;;25.95;14.80;;;14.40;63.40;;;;;;5000408;28;20042;-84
2021/10/02 06:24:10;;;;;;;30.40;14.40;;;14.40;63.40;;;;;;4999240;28;20508;-87
2021/10/02 06:26:37;;;;;;;19.27;13.48;;;14.40;63.40;;;;;;4990204;28;20026;-86
2021/10/02 06:29:04;;;;;;;25.15;14.60;;;14.50;63.30;;;;;;5010494;28;20049;-84
2021/10/02 06:31:30;;;;;;;28.83;13.65;;;14.50;63.30;;;;;;5009977;28;20165;-85
2021/10/02 06:33:56;;;;;;;25.98;14.00;;;14.50;63.10;;;;;;4996290;28;20085;-87
2021/10/02 06:36:22;;;;;;;26.08;14.45;;;14.60;63.10;;;;;;4989636;28;20061;-86
2021/10/02 06:38:48;;;;;;;32.35;14.77;;;14.60;63.10;;;;;;5004603;28;20053;-85
2021/10/02 06:41:14;;;;;;;27.60;14.57;;;14.60;62.90;;;;;;5002840;28;20052;-85
2021/10/02 06:43:40;;;;;;;31.55;14.48;;;14.60;62.90;;;;;;5002272;28;20026;-88
2021/10/02 06:46:06;;;;;;;21.40;13.52;;;14.60;62.80;;;;;;4999925;28;20045;-88
2021/10/02 06:48:32;;;;;;;23.90;14.18;;;14.60;62.90;;;;;;5000413;28;20044;-87
2021/10/02 06:50:58;;;;;;;20.70;13.10;;;14.60;62.90;;;;;;4993079;28;20061;-88
2021/10/02 06:53:24;;;;;;;26.60;13.98;;;14.60;63.30;;;;;;5009430;28;20026;-87
2021/10/02 06:55:50;;;;;;;22.02;14.18;;;14.60;62.50;;;;;;4991881;28;20030;-87
2021/10/02 06:58:16;;;;;;;23.50;14.30;;;14.70;62.50;;;;;;5010428;28;20045;-85
2021/10/02 07:00:42;;;;;;;25.73;15.27;;;14.60;62.30;;;;;;5010518;28;20417;-88
2021/10/02 07:03:07;;;;;;;26.88;14.93;;;14.60;62.70;;;;;;5009522;28;20049;-87
2021/10/02 07:05:34;;;;;;;27.48;15.13;;;14.60;62.70;;;;;;5006936;28;20073;-89
2021/10/02 07:08:00;;;;;;;24.80;15.73;;;14.50;62.80;;;;;;5011545;28;20057;-87
2021/10/02 07:10:26;;;;;;;27.13;15.93;;;14.50;62.80;;;;;;5008950;28;20492;-86
2021/10/02 07:12:53;;;;;;;21.52;14.93;;;14.50;63.20;;;;;;5009711;28;20129;-86
2021/10/02 07:15:20;;;;;;;25.08;14.63;;;14.50;63.70;;;;;;5008255;28;20412;-86
2021/10/02 07:17:46;;;;;;;23.42;15.18;;;14.40;63.70;;;;;;5012660;28;20131;-88
2021/10/02 07:20:14;;;;;;;25.55;15.30;;;14.50;64.00;;;;;;5012029;28;20132;-89
2021/10/02 07:22:41;;;;;;;25.55;14.98;;;14.50;64.30;;;;;;5010690;28;20041;-89
2021/10/02 07:25:13;;;;;;;23.88;15.15;;;14.50;64.20;;;;;;5017865;28;20084;-87
2021/10/02 07:27:40;;;;;;;23.80;14.40;;;14.50;64.20;;;;;;5016834;28;20048;-87
2021/10/02 07:30:07;;;;;;;22.52;15.43;;;14.50;63.90;;;;;;5021671;28;20049;-86
2021/10/02 07:32:34;;;;;;;23.85;15.48;;;14.50;63.80;;;;;;4995870;28;20074;-89
2021/10/02 07:35:00;;;;;;;21.25;15.65;;;14.50;63.70;;;;;;4978312;28;20038;-88
2021/10/02 07:37:26;;;;;;;26.65;15.75;;;14.50;63.50;;;;;;4982590;28;21057;-88
2021/10/02 07:39:52;;;;;;;21.95;15.63;;;14.50;63.60;;;;;;4985025;28;20521;-89
2021/10/02 07:42:20;;;;;;;22.45;15.38;;;14.50;63.40;;;;;;4983992;28;20069;-91
2021/10/02 07:44:52;;;;;;;22.65;14.55;;;14.50;63.40;;;;;;4998975;28;20026;-86
2021/10/02 07:47:19;;;;;;;20.08;14.07;;;14.50;63.40;;;;;;5016672;28;20555;-88
2021/10/02 07:49:48;;;;;;;21.65;14.15;;;14.50;63.00;;;;;;5001098;28;20037;-87
2021/10/02 07:52:15;;;;;;;21.42;13.80;;;14.50;63.30;;;;;;5001502;28;20039;-87
2021/10/02 07:54:43;;;;;;;18.60;12.80;;;14.50;63.40;;;;;;4999581;28;20045;-86
2021/10/02 07:57:10;;;;;;;22.70;12.98;;;14.50;64.00;;;;;;5001065;28;20393;-88
2021/10/02 07:59:37;;;;;;;20.75;12.07;;;14.60;63.60;;;;;;5000482;28;20113;-86
2021/10/02 08:02:07;;;;;;;19.83;13.25;;;14.60;63.30;;;;;;4999488;28;20720;-88
2021/10/02 08:04:33;;;;;;;22.65;12.50;;;14.60;63.30;;;;;;4984921;28;20066;-89
2021/10/02 08:07:01;;;;;;;21.73;12.77;;;14.60;63.30;;;;;;5001943;28;20035;-90
2021/10/02 08:09:27;;;;;;;19.85;12.50;;;14.60;63.10;;;;;;4997109;28;20030;-89
2021/10/02 08:11:53;;;;;;;18.73;12.45;;;14.60;63.00;;;;;;5001612;28;20031;-89
2021/10/02 08:14:19;;;;;;;18.25;12.75;;;14.60;63.30;;;;;;5000447;28;20030;-89
2021/10/02 08:16:47;;;;;;;20.92;12.05;;;14.70;63.30;;;;;;4998067;28;20034;-87
2021/10/02 08:19:15;;;;;;;21.02;12.70;;;14.70;63.00;;;;;;5003096;28;20034;-88
2021/10/02 08:21:42;;;;;;;19.83;12.73;;;14.70;63.30;;;;;;5022139;28;20045;-86
2021/10/02 08:24:08;;;;;;;19.80;12.68;;;14.70;63.30;;;;;;5024745;28;20024;-86
2021/10/02 08:26:46;;;;;;;18.05;12.32;;;14.80;63.30;;;;;;5023755;28;20034;-89
2021/10/02 08:29:30;;;;;;;17.80;12.73;;;14.80;63.00;;;;;;5014938;28;20037;-88
2021/10/02 08:31:56;;;;;;;16.73;11.50;;;14.80;63.10;;;;;;4994177;28;20212;-86
2021/10/02 08:34:23;;;;;;;17.65;12.23;;;14.90;63.30;;;;;;5002680;28;20074;-86
2021/10/02 08:36:49;;;;;;;21.27;12.10;;;14.90;63.20;;;;;;5001614;28;20045;-85
2021/10/02 08:39:16;;;;;;;19.48;12.38;;;14.90;63.00;;;;;;5004528;28;20076;-86
2021/10/02 08:41:43;;;;;;;19.88;12.60;;;14.90;62.80;;;;;;5003284;28;20037;-87
2021/10/02 08:44:10;;;;;;;20.23;12.52;;;14.90;63.30;;;;;;5008370;28;20104;-90
2021/10/02 08:46:38;;;;;;;17.70;12.18;;;15.00;62.50;;;;;;4982458;28;20125;-86
2021/10/02 08:49:36;;;;;;;22.60;12.20;;;15.00;62.40;;;;;;4992449;28;20065;-84
2021/10/02 08:52:04;;;;;;;20.70;11.77;;;15.00;62.20;;;;;;4993940;28;20161;-84
2021/10/02 08:54:37;;;;;;;20.48;11.57;;;15.00;62.00;;;;;;5006378;28;20120;-83
2021/10/02 08:57:08;;;;;;;17.92;11.55;;;15.00;62.20;;;;;;5011457;28;20095;-84
2021/10/02 08:59:37;;;;;;;17.65;11.75;;;15.00;62.10;;;;;;5010127;28;20054;-88
2021/10/02 09:02:05;;;;;;;16.35;12.25;;;15.00;62.10;;;;;;5013278;28;20489;-86
2021/10/02 09:04:30;;;;;;;17.73;12.00;;;15.00;62.10;;;;;;5000785;28;20041;-84
2021/10/02 09:06:58;;;;;;;22.30;12.05;;;15.00;62.00;;;;;;5014134;28;20034;-87
2021/10/02 09:09:25;;;;;;;20.88;12.13;;;15.00;62.10;;;;;;5006798;28;20042;-87
2021/10/02 09:11:52;;;;;;;18.77;11.23;;;15.00;62.50;;;;;;5012036;28;20589;-85
2021/10/02 09:14:19;;;;;;;17.42;11.80;;;15.00;62.60;;;;;;5014789;28;20038;-87
2021/10/02 09:16:46;;;;;;;18.80;12.63;;;15.00;62.70;;;;;;5011975;28;20057;-86
2021/10/02 09:19:12;;;;;;;20.98;11.52;;;15.00;62.50;;;;;;5024995;28;20121;-85
2021/10/02 09:21:44;;;;;;;16.52;10.90;;;15.10;62.60;;;;;;5021385;28;20157;-87
2021/10/02 09:24:27;;;;;;;16.60;10.35;;;15.10;62.40;;;;;;5012244;28;20037;-86
2021/10/02 09:26:54;;;;;;;19.08;11.18;;;15.10;62.30;;;;;;5011371;28;20087;-91
2021/10/02 09:29:42;;;;;;;16.17;11.30;;;15.20;62.20;;;;;;5007278;28;20056;-86
2021/10/02 09:32:14;;;;;;;19.65;11.90;;;15.10;62.30;;;;;;4981000;28;20054;-85
2021/10/02 09:34:54;;;;;;;18.60;11.70;;;15.10;62.20;;;;;;5013775;28;20505;-88
2021/10/02 09:37:33;;;;;;;17.75;11.20;;;15.10;62.80;;;;;;5011344;28;20042;-89
2021/10/02 09:40:04;;;;;;;21.88;11.60;;;15.10;63.00;;;;;;4986867;28;20524;-89
2021/10/02 09:42:37;;;;;;;18.33;11.27;;;15.10;62.70;;;;;;4979050;28;20044;-89
2021/10/02 09:45:09;;;;;;;15.73;10.80;;;15.10;62.50;;;;;;4999055;28;20047;-92
2021/10/02 09:47:37;;;;;;;16.02;10.13;;;15.10;62.60;;;;;;4976956;28;20046;-90
2021/10/02 09:50:14;;;;;;;17.33;10.98;;;15.10;62.90;;;;;;4983392;28;20100;-89
2021/10/02 09:52:43;;;;;;;17.92;10.93;;;15.20;62.40;;;;;;4991773;28;20125;-90
2021/10/02 09:55:22;;;;;;;17.50;10.45;;;15.10;62.50;;;;;;4999783;28;20040;-90
2021/10/02 09:57:50;;;;;;;14.30;10.02;;;15.10;62.60;;;;;;5002436;28;20022;-90
2021/10/02 10:00:21;;;;;;;16.48;10.98;;;15.10;62.50;;;;;;4986509;28;20033;-89
2021/10/02 10:02:47;;;;;;;15.43;10.00;;;15.10;62.30;;;;;;4984150;28;20045;-89
2021/10/02 10:05:15;;;;;;;18.67;11.13;;;15.10;62.00;;;;;;5002796;28;20030;-90
2021/10/02 10:07:55;;;;;;;15.73;10.10;;;15.10;62.20;;;;;;5002278;28;20124;-89
2021/10/02 10:10:21;;;;;;;15.10;10.40;;;15.10;62.20;;;;;;5001089;28;20104;-89
2021/10/02 10:12:47;;;;;;;13.95;10.30;;;15.10;62.20;;;;;;4996144;28;20034;-88
2021/10/02 10:15:50;;;;;;;15.02;9.00;;;15.10;61.80;;;;;;5012185;28;20022;-89
2021/10/02 10:18:30;;;;;;;10.88;9.15;;;15.10;61.40;;;;;;4955798;28;20054;-89
2021/10/02 10:20:57;;;;;;;15.13;10.40;;;15.10;61.40;;;;;;4979846;28;20623;-90
2021/10/02 10:23:41;;;;;;;13.23;9.30;;;15.10;61.90;;;;;;5001230;28;20042;-89
2021/10/02 10:26:08;;;;;;;18.40;9.20;;;15.10;61.50;;;;;;4977291;28;20059;-90
2021/10/02 10:28:37;;;;;;;15.20;9.95;;;15.10;61.20;;;;;;5001831;28;20116;-88
2021/10/02 10:31:25;;;;;;;14.00;9.40;;;15.10;61.30;;;;;;4983747;28;20844;-89
2021/10/02 10:33:56;;;;;;;14.95;9.80;;;15.20;61.40;;;;;;4976954;28;20416;-90
2021/10/02 10:36:25;;;;;;;12.93;9.18;;;15.10;61.30;;;;;;5001492;28;20453;-89
2021/10/02 10:38:51;;;;;;;16.42;9.50;;;15.10;61.50;;;;;;4985703;28;20150;-89
2021/10/02 10:41:20;;;;;;;13.35;10.15;;;15.10;61.70;;;;;;4990588;28;20486;-88
2021/10/02 10:43:46;;;;;;;12.98;9.57;;;15.10;61.50;;;;;;4981538;28;20500;-89
2021/10/02 10:46:15;;;;;;;13.23;9.80;;;15.10;61.50;;;;;;5000863;28;20038;-89
2021/10/02 10:48:42;;;;;;;14.35;9.88;;;15.10;61.20;;;;;;4998523;28;20352;-89
2021/10/02 10:51:10;;;;;;;15.80;10.38;;;15.10;61.30;;;;;;4983477;28;20424;-89
2021/10/02 10:53:37;;;;;;;16.90;10.60;;;15.10;61.50;;;;;;4983549;28;20049;-90
2021/10/02 10:56:05;;;;;;;15.90;11.13;;;15.10;61.60;;;;;;4983818;28;20030;-89
2021/10/02 10:58:32;;;;;;;16.10;10.50;;;15.10;61.40;;;;;;4976737;28;20042;-89
2021/10/02 11:01:01;;;;;;;14.77;10.52;;;15.10;61.30;;;;;;5001022;28;20034;-89
2021/10/02 11:03:38;;;;;;;13.90;10.35;;;15.10;61.10;;;;;;4983421;28;20037;-88
2021/10/02 11:06:09;;;;;;;14.43;10.77;;;15.10;60.90;;;;;;4977509;28;20098;-89
2021/10/02 11:09:00;;;;;;;14.10;10.90;;;15.10;60.90;;;;;;5015488;28;20065;-89
2021/10/02 11:11:45;;;;;;;15.02;11.18;;;15.10;60.90;;;;;;5027662;28;20014;-89
2021/10/02 11:14:12;;;;;;;17.90;11.52;;;15.10;61.20;;;;;;5021483;28;20061;-89
2021/10/02 11:16:41;;;;;;;16.48;10.77;;;15.10;61.10;;;;;;4991079;28;20064;-90
2021/10/02 11:19:36;;;;;;;17.35;10.30;;;15.10;60.90;;;;;;4986504;28;20568;-90
2021/10/02 11:22:45;;;;;;;15.17;10.13;;;15.10;60.50;;;;;;4999338;28;20107;-90
2021/10/02 11:25:23;;;;;;;14.15;10.05;;;15.10;60.50;;;;;;4988732;28;20288;-89
2021/10/02 11:27:51;;;;;;;15.38;11.15;;;15.10;60.90;;;;;;5018385;28;20040;-90
2021/10/02 11:30:20;;;;;;;16.80;10.77;;;15.10;60.90;;;;;;4975334;28;20064;-89
2021/10/02 11:32:46;;;;;;;14.88;10.60;;;15.10;61.00;;;;;;5001490;28;20030;-90
2021/10/02 11:35:20;;;;;;;15.88;10.85;;;15.10;61.10;;;;;;5001136;28;20030;-89
2021/10/02 11:38:00;;;;;;;17.13;10.57;;;15.20;60.80;;;;;;5000944;28;20482;-89
2021/10/02 11:40:32;;;;;;;17.25;11.38;;;15.20;60.80;;;;;;4982263;28;20104;-89
2021/10/02 11:43:21;;;;;;;17.02;11.43;;;15.20;60.80;;;;;;5003814;28;20030;-89
2021/10/02 11:45:47;;;;;;;13.75;10.60;;;15.20;60.70;;;;;;4998750;28;20034;-89
2021/10/02 11:48:19;;;;;;;17.80;12.30;;;15.10;60.60;;;;;;4985167;28;20072;-89
2021/10/02 11:50:47;;;;;;;14.63;10.50;;;15.10;60.60;;;;;;5014973;28;20042;-89
2021/10/02 11:53:15;;;;;;;17.52;12.23;;;15.20;60.70;;;;;;4983594;28;20031;-89
2021/10/02 11:55:41;;;;;;;15.07;11.48;;;15.20;61.30;;;;;;4982928;28;20489;-90
2021/10/02 11:58:07;;;;;;;13.93;10.70;;;15.10;61.40;;;;;;5002061;28;20120;-88
2021/10/02 12:00:45;;;;;;;14.32;10.52;;;15.20;61.40;;;;;;4988302;28;20394;-89
2021/10/02 12:03:13;;;;;;;15.90;10.07;;;15.20;61.50;;;;;;5014901;28;20081;-88
2021/10/02 12:05:44;;;;;;;17.80;11.07;;;15.20;61.40;;;;;;5010825;28;20033;-87
2021/10/02 12:08:10;;;;;;;17.08;11.00;;;15.20;61.30;;;;;;5007831;28;20032;-87
2021/10/02 12:10:58;;;;;;;13.90;10.90;;;15.20;61.30;;;;;;5002819;28;20509;-87
2021/10/02 12:13:27;;;;;;;15.07;11.00;;;15.20;61.30;;;;;;4984080;28;20151;-88
2021/10/02 12:16:16;;;;;;;14.85;10.15;;;15.20;61.30;;;;;;5002473;28;20026;-89
2021/10/02 12:18:45;;;;;;;16.27;10.77;;;15.20;61.50;;;;;;4980130;28;20029;-89
2021/10/02 12:21:27;;;;;;;14.43;10.38;;;15.10;61.60;;;;;;4987166;28;20613;-89
2021/10/02 12:24:07;;;;;;;14.30;10.63;;;15.20;61.30;;;;;;4983017;28;20468;-89
2021/10/02 12:26:59;;;;;;;12.52;9.65;;;15.20;60.90;;;;;;4998453;28;20413;-89
2021/10/02 12:29:41;;;;;;;14.85;10.20;;;15.20;60.90;;;;;;5000076;28;20044;-90
2021/10/02 12:32:11;;;;;;;16.63;10.20;;;15.10;60.90;;;;;;4999387;28;20022;-89
2021/10/02 12:34:55;;;;;;;14.35;10.90;;;15.10;60.60;;;;;;4983472;28;20028;-90
2021/10/02 12:37:31;;;;;;;13.45;10.23;;;15.10;60.50;;;;;;4983310;28;20240;-90
2021/10/02 12:40:04;;;;;;;17.15;9.93;;;15.10;61.30;;;;;;4970743;28;20041;-89
2021/10/02 12:42:41;;;;;;;14.63;10.52;;;15.10;60.70;;;;;;5000026;28;20100;-90
2021/10/02 12:45:09;;;;;;;14.45;10.15;;;15.10;60.50;;;;;;4975608;28;20531;-90
2021/10/02 12:47:36;;;;;;;14.27;10.55;;;15.10;60.40;;;;;;4975857;28;20412;-89
2021/10/02 12:50:09;;;;;;;17.65;10.40;;;15.20;60.50;;;;;;4997354;28;20038;-89
2021/10/02 12:52:35;;;;;;;13.80;9.90;;;15.10;60.70;;;;;;4986017;28;20521;-89
2021/10/02 12:55:07;;;;;;;13.88;10.52;;;15.10;60.50;;;;;;4980988;28;20033;-89
2021/10/02 12:57:34;;;;;;;19.60;11.15;;;15.20;60.70;;;;;;5009788;28;20045;-90
2021/10/02 13:00:12;;;;;;;15.05;10.23;;;15.10;60.50;;;;;;5009828;28;20033;-87
2021/10/02 13:02:47;;;;;;;14.38;11.05;;;15.10;60.30;;;;;;5004896;28;20021;-89
2021/10/02 13:05:18;;;;;;;14.23;10.82;;;15.10;60.40;;;;;;5001247;28;20065;-87
2021/10/02 13:07:55;;;;;;;17.65;10.73;;;15.10;60.30;;;;;;5013668;28;20129;-88
2021/10/02 13:10:34;;;;;;;16.60;11.30;;;15.10;61.10;;;;;;5000025;28;20042;-87
2021/10/02 13:13:11;;;;;;;12.82;9.88;;;15.10;60.90;;;;;;4999713;28;20033;-93
2021/10/02 13:15:47;;;;;;;17.20;10.85;;;15.10;60.60;;;;;;5034466;28;20040;-96
2021/10/02 13:18:18;;;;;;;14.52;10.32;;;15.10;60.30;;;;;;5027404;28;20523;-91
2021/10/02 13:20:53;;;;;;;15.50;10.13;;;15.10;60.20;;;;;;5014288;28;20037;-90
2021/10/02 13:23:32;;;;;;;15.60;10.60;;;15.10;60.50;;;;;;5006764;28;20040;-92
2021/10/02 13:26:09;;;;;;;13.95;9.93;;;15.10;60.50;;;;;;5004947;28;20056;-91
2021/10/02 13:28:43;;;;;;;15.85;10.23;;;15.10;60.80;;;;;;4991418;28;20155;-87
2021/10/02 13:31:20;;;;;;;20.13;10.52;;;15.10;60.80;;;;;;4972956;28;20060;-90
2021/10/02 13:33:48;;;;;;;17.10;11.02;;;15.10;61.00;;;;;;4986221;28;20072;-90
2021/10/02 13:36:21;;;;;;;17.05;10.70;;;15.10;61.10;;;;;;4975705;28;20519;-93
2021/10/02 13:38:47;;;;;;;16.52;10.65;;;15.10;61.10;;;;;;5005557;28;20042;-92